createdAt,value
2022-10-28T00:00:50.441Z,6.21
2022-10-28T00:01:50.477Z,6.13
2022-10-28T00:02:50.658Z,6.16
2022-10-28T00:03:50.396Z,6.18
2022-10-28T00:04:50.365Z,6.19
2022-10-28T00:05:50.358Z,6.12
2022-10-28T00:06:50.336Z,6.12
2022-10-28T00:07:50.572Z,6.18
2022-10-28T00:08:50.316Z,6.18
2022-10-28T00:09:50.296Z,6.27
2022-10-28T00:10:50.264Z,6.27
2022-10-28T00:11:50.258Z,6.27
2022-10-28T00:12:50.236Z,6.27
2022-10-28T00:13:50.226Z,6.24
2022-10-28T00:14:50.185Z,6.24
2022-10-28T00:15:50.180Z,6.28
2022-10-28T00:16:50.148Z,6.19
2022-10-28T00:17:50.274Z,6.27
2022-10-28T00:18:50.131Z,6.27
2022-10-28T00:19:50.128Z,6.28
2022-10-28T00:20:50.099Z,6.30
2022-10-28T00:21:50.107Z,6.28
2022-10-28T00:22:50.081Z,6.28
2022-10-28T00:23:50.071Z,6.25
2022-10-28T00:24:50.068Z,6.31
2022-10-28T00:25:50.031Z,6.24
2022-10-28T00:26:50.010Z,6.25
2022-10-28T00:27:50.183Z,6.25
2022-10-28T00:28:49.973Z,6.19
2022-10-28T00:29:49.982Z,6.21
2022-10-28T00:30:49.948Z,6.25
2022-10-28T00:31:49.932Z,6.27
2022-10-28T00:32:49.973Z,6.27
2022-10-28T00:33:49.902Z,6.27
2022-10-28T00:34:49.891Z,6.21
2022-10-28T00:35:49.861Z,6.27
2022-10-28T00:36:49.843Z,6.24
2022-10-28T00:37:49.823Z,6.30
2022-10-28T00:38:49.814Z,6.19
2022-10-28T00:39:49.802Z,6.21
2022-10-28T00:40:49.782Z,6.21
2022-10-28T00:41:49.763Z,6.19
2022-10-28T00:42:49.824Z,6.25
2022-10-28T00:43:49.724Z,6.31
2022-10-28T00:44:49.695Z,6.31
2022-10-28T00:45:49.695Z,6.31
2022-10-28T00:46:49.677Z,6.30
2022-10-28T00:47:49.645Z,6.25
2022-10-28T00:48:49.636Z,6.25
2022-10-28T00:49:49.616Z,6.25
2022-10-28T00:50:49.607Z,6.21
2022-10-28T00:51:49.582Z,6.21
2022-10-28T00:52:49.566Z,6.21
2022-10-28T00:53:49.546Z,6.21
2022-10-28T00:54:49.525Z,6.24
2022-10-28T00:55:49.555Z,6.21
2022-10-28T00:56:49.497Z,6.24
2022-10-28T00:57:49.481Z,6.27
2022-10-28T00:58:49.465Z,6.28
2022-10-28T00:59:49.450Z,6.34
2022-10-28T01:00:49.438Z,6.31
2022-10-28T01:01:49.512Z,6.34
2022-10-28T01:02:49.495Z,6.37
2022-10-28T01:03:49.399Z,6.35
2022-10-28T01:04:49.389Z,6.46
2022-10-28T01:05:49.381Z,6.38
2022-10-28T01:06:49.377Z,6.35
2022-10-28T01:07:49.369Z,6.34
2022-10-28T01:08:49.351Z,6.38
2022-10-28T01:09:56.358Z,6.42
2022-10-28T01:10:49.311Z,6.43
2022-10-28T01:11:49.339Z,6.43
2022-10-28T01:12:49.289Z,6.47
2022-10-28T01:13:49.289Z,6.47
2022-10-28T01:14:49.270Z,6.50
2022-10-28T01:15:49.260Z,6.55
2022-10-28T01:16:49.249Z,6.56
2022-10-28T01:17:49.230Z,6.60
2022-10-28T01:18:49.221Z,6.64
2022-10-28T01:19:49.200Z,6.64
2022-10-28T01:20:49.172Z,6.68
2022-10-28T01:21:49.190Z,6.70
2022-10-28T01:22:49.162Z,6.78
2022-10-28T01:23:49.131Z,6.79
2022-10-28T01:24:49.098Z,6.82
2022-10-28T01:25:49.102Z,6.82
2022-10-28T01:26:49.060Z,6.85
2022-10-28T01:27:49.059Z,6.82
2022-10-28T01:28:49.031Z,6.88
2022-10-28T01:29:49.004Z,6.91
2022-10-28T01:30:48.973Z,6.89
2022-10-28T01:31:48.981Z,6.93
2022-10-28T01:32:48.945Z,6.92
2022-10-28T01:33:48.924Z,6.96
2022-10-28T01:34:48.905Z,6.99
2022-10-28T01:35:48.874Z,7.01
2022-10-28T01:36:48.865Z,7.08
2022-10-28T01:37:48.884Z,7.08
2022-10-28T01:38:48.826Z,7.11
2022-10-28T01:39:48.805Z,7.16
2022-10-28T01:40:48.796Z,7.21
2022-10-28T01:41:48.767Z,7.16
2022-10-28T01:42:48.755Z,7.22
2022-10-28T01:43:48.738Z,7.28
2022-10-28T01:44:48.717Z,7.22
2022-10-28T01:45:48.696Z,7.24
2022-10-28T01:46:48.698Z,7.28
2022-10-28T01:47:48.689Z,7.29
2022-10-28T01:48:48.678Z,7.28
2022-10-28T01:49:48.628Z,7.34
2022-10-28T01:50:48.618Z,7.33
2022-10-28T01:51:48.625Z,7.33
2022-10-28T01:52:48.619Z,7.33
2022-10-28T01:53:48.594Z,7.34
2022-10-28T01:54:48.559Z,7.33
2022-10-28T01:55:48.539Z,7.40
2022-10-28T01:56:48.554Z,7.34
2022-10-28T01:57:48.510Z,7.36
2022-10-28T01:58:48.511Z,7.31
2022-10-28T01:59:48.483Z,7.31
2022-10-28T02:00:48.502Z,7.33
2022-10-28T02:01:48.766Z,7.34
2022-10-28T02:02:48.440Z,7.28
2022-10-28T02:03:48.412Z,7.26
2022-10-28T02:04:48.411Z,7.31
2022-10-28T02:05:48.380Z,7.26
2022-10-28T02:06:48.373Z,7.26
2022-10-28T02:07:48.353Z,7.24
2022-10-28T02:08:48.332Z,7.25
2022-10-28T02:09:48.304Z,7.29
2022-10-28T02:10:48.283Z,7.24
2022-10-28T02:11:48.253Z,7.24
2022-10-28T02:12:48.253Z,7.24
2022-10-28T02:13:48.224Z,7.22
2022-10-28T02:14:48.233Z,7.25
2022-10-28T02:15:48.187Z,7.26
2022-10-28T02:16:48.174Z,7.25
2022-10-28T02:17:48.143Z,7.19
2022-10-28T02:18:48.126Z,7.21
2022-10-28T02:19:48.095Z,7.13
2022-10-28T02:20:48.085Z,7.18
2022-10-28T02:21:48.062Z,7.13
2022-10-28T02:22:48.036Z,7.11
2022-10-28T02:23:48.017Z,7.08
2022-10-28T02:24:48.020Z,7.01
2022-10-28T02:25:47.989Z,7.03
2022-10-28T02:26:47.982Z,7.04
2022-10-28T02:27:47.945Z,7.04
2022-10-28T02:28:47.927Z,7.03
2022-10-28T02:29:47.909Z,6.96
2022-10-28T02:30:47.909Z,6.99
2022-10-28T02:31:47.869Z,6.91
2022-10-28T02:32:47.860Z,6.91
2022-10-28T02:33:47.848Z,6.97
2022-10-28T02:34:47.829Z,6.88
2022-10-28T02:35:47.827Z,6.97
2022-10-28T02:36:47.798Z,6.96
2022-10-28T02:37:47.770Z,6.89
2022-10-28T02:38:47.760Z,6.92
2022-10-28T02:39:47.742Z,6.92
2022-10-28T02:40:47.792Z,6.92
2022-10-28T02:41:47.710Z,6.89
2022-10-28T02:42:47.684Z,6.91
2022-10-28T02:43:47.653Z,6.92
2022-10-28T02:44:47.640Z,7.01
2022-10-28T02:45:47.611Z,6.99
2022-10-28T02:46:47.603Z,6.99
2022-10-28T02:47:47.563Z,7.01
2022-10-28T02:48:47.545Z,7.08
2022-10-28T02:49:47.513Z,7.10
2022-10-28T02:50:47.493Z,7.08
2022-10-28T02:51:47.482Z,7.11
2022-10-28T02:52:47.451Z,7.11
2022-10-28T02:53:47.424Z,7.11
2022-10-28T02:54:47.394Z,7.11
2022-10-28T02:55:47.385Z,7.19
2022-10-28T02:56:47.374Z,7.18
2022-10-28T02:57:47.335Z,7.16
2022-10-28T02:58:47.315Z,7.10
2022-10-28T02:59:47.285Z,7.08
2022-10-28T03:00:47.312Z,7.11
2022-10-28T03:01:47.315Z,7.08
2022-10-28T03:02:47.206Z,7.13
2022-10-28T03:03:47.180Z,7.13
2022-10-28T03:04:47.157Z,7.18
2022-10-28T03:05:47.137Z,7.19
2022-10-28T03:06:47.118Z,7.16
2022-10-28T03:07:47.107Z,7.18
2022-10-28T03:08:47.077Z,7.25
2022-10-28T03:09:47.065Z,7.24
2022-10-28T03:10:47.049Z,7.24
2022-10-28T03:11:47.019Z,7.25
2022-10-28T03:12:47.018Z,7.29
2022-10-28T03:13:46.980Z,7.37
2022-10-28T03:14:46.969Z,7.40
2022-10-28T03:15:46.942Z,7.40
2022-10-28T03:16:46.919Z,7.46
2022-10-28T03:17:46.909Z,7.44
2022-10-28T03:18:46.881Z,7.43
2022-10-28T03:19:46.870Z,7.47
2022-10-28T03:20:46.840Z,7.40
2022-10-28T03:21:46.820Z,7.44
2022-10-28T03:22:46.792Z,7.55
2022-10-28T03:23:46.781Z,7.50
2022-10-28T03:24:46.741Z,7.50
2022-10-28T03:25:46.713Z,7.54
2022-10-28T03:26:46.683Z,7.50
2022-10-28T03:27:46.662Z,7.50
2022-10-28T03:28:46.651Z,7.52
2022-10-28T03:29:46.622Z,7.52
2022-10-28T03:30:46.593Z,7.52
2022-10-28T03:31:46.579Z,7.49
2022-10-28T03:32:46.544Z,7.46
2022-10-28T03:33:46.544Z,7.58
2022-10-28T03:34:46.495Z,7.58
2022-10-28T03:35:46.474Z,7.58
2022-10-28T03:36:46.453Z,7.57
2022-10-28T03:37:46.435Z,7.62
2022-10-28T03:38:46.405Z,7.61
2022-10-28T03:39:46.395Z,7.69
2022-10-28T03:40:46.354Z,7.73
2022-10-28T03:41:46.336Z,7.73
2022-10-28T03:42:46.306Z,7.77
2022-10-28T03:43:46.294Z,7.76
2022-10-28T03:44:46.276Z,7.80
2022-10-28T03:45:46.255Z,7.81
2022-10-28T03:46:46.228Z,7.87
2022-10-28T03:47:46.207Z,7.86
2022-10-28T03:48:46.186Z,7.88
2022-10-28T03:49:46.175Z,7.92
2022-10-28T03:50:46.128Z,7.86
2022-10-28T03:51:46.111Z,7.91
2022-10-28T03:52:46.079Z,7.94
2022-10-28T03:53:46.060Z,7.94
2022-10-28T03:54:46.029Z,7.95
2022-10-28T03:55:46.021Z,7.94
2022-10-28T03:56:45.979Z,7.92
2022-10-28T03:57:45.960Z,7.88
2022-10-28T03:58:45.958Z,7.91
2022-10-28T03:59:45.900Z,7.87
2022-10-28T04:00:45.871Z,7.87
2022-10-28T04:01:45.932Z,7.94
2022-10-28T04:02:45.812Z,8.02
2022-10-28T04:03:45.791Z,8.05
2022-10-28T04:04:45.762Z,7.99
2022-10-28T04:05:45.752Z,7.99
2022-10-28T04:06:45.706Z,8.04
2022-10-28T04:07:45.682Z,8.06
2022-10-28T04:08:45.662Z,8.06
2022-10-28T04:09:45.633Z,8.09
2022-10-28T04:10:47.436Z,8.10
2022-10-28T04:11:45.584Z,8.13
2022-10-28T04:12:45.558Z,8.10
2022-10-28T04:13:45.537Z,8.12
2022-10-28T04:14:45.502Z,8.12
2022-10-28T04:15:45.521Z,8.14
2022-10-28T04:16:45.454Z,8.12
2022-10-28T04:17:45.434Z,8.19
2022-10-28T04:18:45.405Z,8.05
2022-10-28T04:19:45.366Z,8.17
2022-10-28T04:20:45.358Z,8.17
2022-10-28T04:21:45.330Z,8.19
2022-10-28T04:22:45.287Z,8.14
2022-10-28T04:23:45.257Z,8.14
2022-10-28T04:24:45.227Z,8.12
2022-10-28T04:25:45.212Z,8.10
2022-10-28T04:26:45.166Z,8.06
2022-10-28T04:27:45.148Z,8.05
2022-10-28T04:28:45.109Z,8.09
2022-10-28T04:29:45.089Z,8.10
2022-10-28T04:30:45.059Z,8.13
2022-10-28T04:31:48.592Z,8.13
2022-10-28T04:32:46.002Z,8.13
2022-10-28T04:33:44.971Z,8.14
2022-10-28T04:34:44.932Z,8.13
2022-10-28T04:35:44.919Z,8.10
2022-10-28T04:36:44.871Z,8.09
2022-10-28T04:37:44.851Z,8.10
2022-10-28T04:38:44.820Z,8.06
2022-10-28T04:39:44.792Z,8.05
2022-10-28T04:40:44.771Z,8.10
2022-10-28T04:41:44.745Z,8.10
2022-10-28T04:42:44.712Z,8.01
2022-10-28T04:43:44.692Z,7.96
2022-10-28T04:44:44.661Z,7.91
2022-10-28T04:45:44.643Z,7.88
2022-10-28T04:46:44.601Z,7.84
2022-10-28T04:47:44.563Z,7.81
2022-10-28T04:48:44.534Z,7.81
2022-10-28T04:49:44.505Z,7.77
2022-10-28T04:50:44.484Z,7.78
2022-10-28T04:51:44.488Z,7.80
2022-10-28T04:52:44.415Z,7.84
2022-10-28T04:53:44.395Z,7.83
2022-10-28T04:54:44.359Z,7.88
2022-10-28T04:55:44.346Z,7.87
2022-10-28T04:56:44.303Z,7.91
2022-10-28T04:57:44.287Z,7.91
2022-10-28T04:58:44.254Z,7.87
2022-10-28T04:59:44.226Z,7.87
2022-10-28T05:00:44.207Z,7.81
2022-10-28T05:01:44.239Z,7.78
2022-10-28T05:02:46.087Z,7.74
2022-10-28T05:03:44.128Z,7.69
2022-10-28T05:04:44.067Z,7.69
2022-10-28T05:05:44.049Z,7.66
2022-10-28T05:06:44.027Z,7.57
2022-10-28T05:07:43.998Z,7.54
2022-10-28T05:08:43.977Z,7.62
2022-10-28T05:09:43.956Z,7.60
2022-10-28T05:10:43.929Z,7.50
2022-10-28T05:11:43.924Z,7.58
2022-10-28T05:12:43.897Z,7.55
2022-10-28T05:13:43.870Z,7.49
2022-10-28T05:14:43.849Z,7.46
2022-10-28T05:15:43.830Z,7.49
2022-10-28T05:16:43.821Z,7.46
2022-10-28T05:17:43.779Z,7.43
2022-10-28T05:19:43.711Z,7.43
2022-10-28T05:20:43.680Z,7.36
2022-10-28T05:21:43.663Z,7.29
2022-10-28T05:22:43.612Z,7.24
2022-10-28T05:23:43.582Z,7.15
2022-10-28T05:24:43.552Z,7.13
2022-10-28T05:25:43.513Z,7.07
2022-10-28T05:26:43.483Z,7.11
2022-10-28T05:27:43.442Z,7.08
2022-10-28T05:28:43.402Z,7.11
2022-10-28T05:29:43.361Z,7.10
2022-10-28T05:30:43.315Z,7.13
2022-10-28T05:31:43.286Z,7.15
2022-10-28T05:32:43.247Z,7.13
2022-10-28T05:33:43.206Z,7.10
2022-10-28T05:34:43.163Z,7.11
2022-10-28T05:35:43.127Z,7.10
2022-10-28T05:36:43.083Z,7.10
2022-10-28T05:37:43.065Z,7.08
2022-10-28T05:38:43.015Z,7.06
2022-10-28T05:39:42.977Z,7.03
2022-10-28T05:40:42.937Z,7.00
2022-10-28T05:41:42.916Z,6.96
2022-10-28T05:42:42.858Z,6.92
2022-10-28T05:43:42.828Z,6.92
2022-10-28T05:44:42.789Z,6.91
2022-10-28T05:45:42.750Z,6.89
2022-10-28T05:46:42.728Z,6.93
2022-10-28T05:47:42.679Z,6.96
2022-10-28T05:48:42.640Z,6.93
2022-10-28T05:49:42.600Z,6.97
2022-10-28T05:50:42.559Z,7.03
2022-10-28T05:51:42.526Z,7.07
2022-10-28T05:52:42.589Z,7.08
2022-10-28T05:53:42.440Z,7.08
2022-10-28T05:54:42.414Z,7.16
2022-10-28T05:55:46.774Z,7.16
2022-10-28T05:56:43.339Z,7.19
2022-10-28T05:57:42.320Z,7.15
2022-10-28T05:58:42.298Z,7.16
2022-10-28T05:59:42.241Z,7.24
2022-10-28T06:00:42.199Z,7.24
2022-10-28T06:01:42.196Z,7.21
2022-10-28T06:02:42.138Z,7.21
2022-10-28T06:03:42.164Z,7.29
2022-10-28T06:04:42.052Z,7.22
2022-10-28T06:05:42.023Z,7.22
2022-10-28T06:06:41.973Z,7.16
2022-10-28T06:07:41.954Z,7.18
2022-10-28T06:08:41.922Z,7.21
2022-10-28T06:09:41.874Z,7.21
2022-10-28T06:10:41.834Z,7.24
2022-10-28T06:11:40.271Z,7.22
2022-10-28T06:12:40.249Z,7.22
2022-10-28T06:13:40.210Z,7.26
2022-10-28T06:14:40.173Z,7.31
2022-10-28T06:15:40.133Z,7.34
2022-10-28T06:16:40.093Z,7.39
2022-10-28T06:17:40.056Z,7.46
2022-10-28T06:18:40.037Z,7.47
2022-10-28T06:19:39.979Z,7.52
2022-10-28T06:20:39.937Z,7.55
2022-10-28T06:21:39.902Z,7.61
2022-10-28T06:22:39.852Z,7.66
2022-10-28T06:23:39.833Z,7.76
2022-10-28T06:24:39.784Z,7.86
2022-10-28T06:25:39.755Z,7.96
2022-10-28T06:26:39.715Z,8.01
2022-10-28T06:27:39.678Z,8.05
2022-10-28T06:28:39.657Z,8.09
2022-10-28T06:29:39.601Z,8.06
2022-10-28T06:30:39.560Z,8.14
2022-10-28T06:31:39.532Z,8.19
2022-10-28T06:32:39.483Z,8.21
2022-10-28T06:33:39.474Z,8.23
2022-10-28T06:34:39.414Z,8.35
2022-10-28T06:35:39.387Z,8.38
2022-10-28T06:36:39.351Z,8.47
2022-10-28T06:37:39.319Z,8.55
2022-10-28T06:38:39.291Z,8.55
2022-10-28T06:39:39.263Z,8.59
2022-10-28T06:40:39.209Z,8.65
2022-10-28T06:41:39.177Z,8.65
2022-10-28T06:42:39.144Z,8.68
2022-10-28T06:43:39.206Z,8.75
2022-10-28T06:44:39.068Z,8.80
2022-10-28T06:45:39.018Z,8.81
2022-10-28T06:46:40.491Z,8.85
2022-10-28T06:47:41.596Z,8.88
2022-10-28T06:48:40.405Z,8.92
2022-10-28T06:49:40.418Z,8.95
2022-10-28T06:50:40.306Z,9.04
2022-10-28T06:51:40.267Z,8.96
2022-10-28T06:52:40.249Z,9.15
2022-10-28T06:53:40.177Z,9.16
2022-10-28T06:54:40.140Z,9.16
2022-10-28T06:55:40.079Z,9.30
2022-10-28T06:56:40.043Z,9.30
2022-10-28T06:57:39.974Z,9.34
2022-10-28T06:58:39.935Z,9.41
2022-10-28T06:59:39.875Z,9.47
2022-10-28T07:00:39.828Z,9.47
2022-10-28T07:01:39.870Z,9.50
2022-10-28T07:02:42.808Z,9.51
2022-10-28T07:03:40.671Z,9.55
2022-10-28T07:04:39.614Z,9.62
2022-10-28T07:05:39.572Z,9.65
2022-10-28T07:06:39.504Z,9.69
2022-10-28T07:07:39.465Z,9.73
2022-10-28T07:08:39.416Z,9.66
2022-10-28T07:09:39.358Z,9.70
2022-10-28T07:10:39.318Z,9.75
2022-10-28T07:11:39.251Z,9.87
2022-10-28T07:12:39.190Z,9.84
2022-10-28T07:13:39.140Z,9.84
2022-10-28T07:14:39.083Z,9.93
2022-10-28T07:15:39.043Z,9.90
2022-10-28T07:16:38.974Z,9.91
2022-10-28T07:17:38.926Z,9.91
2022-10-28T07:18:38.874Z,9.88
2022-10-28T07:19:38.819Z,9.93
2022-10-28T07:20:38.769Z,9.91
2022-10-28T07:21:38.711Z,9.98
2022-10-28T07:22:38.640Z,9.96
2022-10-28T07:23:38.593Z,9.98
2022-10-28T07:24:38.532Z,10.01
2022-10-28T07:25:38.493Z,9.98
2022-10-28T07:26:38.423Z,10.02
2022-10-28T07:27:38.374Z,10.05
2022-10-28T07:28:38.315Z,10.06
2022-10-28T07:29:38.265Z,10.09
2022-10-28T07:30:38.206Z,10.09
2022-10-28T07:31:38.158Z,10.12
2022-10-28T07:32:38.098Z,10.16
2022-10-28T07:33:38.050Z,10.14
2022-10-28T07:34:38.000Z,10.18
2022-10-28T07:35:37.948Z,10.16
2022-10-28T07:36:37.881Z,10.18
2022-10-28T07:37:37.821Z,10.20
2022-10-28T07:38:37.772Z,10.21
2022-10-28T07:40:37.655Z,10.24
2022-10-28T07:41:37.573Z,10.24
2022-10-28T07:42:37.514Z,10.26
2022-10-28T07:43:37.453Z,10.30
2022-10-28T07:44:37.395Z,10.34
2022-10-28T07:45:37.324Z,10.36
2022-10-28T07:46:37.285Z,10.36
2022-10-28T07:47:37.205Z,10.30
2022-10-28T07:48:37.154Z,10.26
2022-10-28T07:49:37.096Z,10.21
2022-10-28T07:50:37.026Z,10.24
2022-10-28T07:51:36.965Z,10.36
2022-10-28T07:52:36.898Z,10.43
2022-10-28T07:53:36.834Z,10.54
2022-10-28T07:54:36.776Z,10.60
2022-10-28T07:55:36.713Z,10.62
2022-10-28T07:56:36.655Z,10.68
2022-10-28T07:57:36.573Z,10.70
2022-10-28T07:58:36.513Z,10.75
2022-10-28T07:59:36.448Z,10.83
2022-10-28T08:00:36.411Z,10.83
2022-10-28T08:01:36.380Z,10.93
2022-10-28T08:02:36.247Z,10.95
2022-10-28T08:03:38.812Z,11.00
2022-10-28T08:04:36.116Z,11.01
2022-10-28T08:05:36.037Z,11.05
2022-10-28T08:06:35.983Z,11.11
2022-10-28T08:07:38.516Z,11.09
2022-10-28T08:08:35.838Z,11.11
2022-10-28T08:09:35.775Z,11.13
2022-10-28T08:10:35.705Z,11.16
2022-10-28T08:11:35.631Z,11.20
2022-10-28T08:12:35.571Z,11.27
2022-10-28T08:13:39.300Z,11.30
2022-10-28T08:14:35.428Z,11.37
2022-10-28T08:15:35.357Z,11.34
2022-10-28T08:16:35.305Z,11.40
2022-10-28T08:17:35.243Z,11.38
2022-10-28T08:18:35.164Z,11.43
2022-10-28T08:19:35.095Z,11.46
2022-10-28T08:20:35.023Z,11.51
2022-10-28T08:21:34.954Z,11.49
2022-10-28T08:22:34.900Z,11.56
2022-10-28T08:23:34.812Z,11.59
2022-10-28T08:24:34.744Z,11.66
2022-10-28T08:25:34.662Z,11.73
2022-10-28T08:26:34.600Z,11.77
2022-10-28T08:27:34.521Z,11.89
2022-10-28T08:28:34.461Z,11.88
2022-10-28T08:29:34.382Z,11.82
2022-10-28T08:30:50.275Z,11.96
2022-10-28T08:31:35.221Z,12.00
2022-10-28T08:32:34.152Z,12.08
2022-10-28T08:33:34.083Z,12.17
2022-10-28T08:34:34.529Z,12.23
2022-10-28T08:35:33.923Z,12.25
2022-10-28T08:36:33.851Z,12.29
2022-10-28T08:37:33.807Z,12.36
2022-10-28T08:38:33.704Z,12.41
2022-10-28T08:39:33.625Z,12.44
2022-10-28T08:40:33.536Z,12.48
2022-10-28T08:41:33.460Z,12.51
2022-10-28T08:42:33.386Z,12.55
2022-10-28T08:43:46.334Z,12.66
2022-10-28T08:44:34.219Z,12.68
2022-10-28T08:45:33.134Z,12.81
2022-10-28T08:46:33.050Z,12.88
2022-10-28T08:47:32.971Z,13.01
2022-10-28T08:48:32.891Z,13.11
2022-10-28T08:49:32.821Z,13.16
2022-10-28T08:50:32.722Z,13.27
2022-10-28T08:51:32.631Z,13.40
2022-10-28T08:52:32.544Z,13.51
2022-10-28T08:53:32.454Z,13.54
2022-10-28T08:54:32.384Z,13.61
2022-10-28T08:55:32.283Z,13.64
2022-10-28T08:56:32.193Z,13.64
2022-10-28T08:57:32.102Z,13.65
2022-10-28T08:58:32.021Z,13.75
2022-10-28T08:59:31.939Z,13.82
2022-10-28T09:00:31.837Z,13.85
2022-10-28T09:01:31.885Z,13.83
2022-10-28T09:02:31.645Z,13.80
2022-10-28T09:03:33.332Z,13.85
2022-10-28T09:04:31.458Z,13.85
2022-10-28T09:05:31.349Z,13.83
2022-10-28T09:06:31.260Z,13.90
2022-10-28T09:07:31.159Z,13.94
2022-10-28T09:08:31.070Z,13.97
2022-10-28T09:09:30.988Z,13.96
2022-10-28T09:10:30.880Z,13.97
2022-10-28T09:11:30.794Z,14.00
2022-10-28T09:12:30.700Z,14.03
2022-10-28T09:13:30.602Z,14.04
2022-10-28T09:14:30.502Z,14.09
2022-10-28T09:15:30.461Z,14.13
2022-10-28T09:16:30.333Z,14.18
2022-10-28T09:17:30.203Z,14.16
2022-10-28T09:18:30.114Z,14.16
2022-10-28T09:19:30.005Z,14.23
2022-10-28T09:20:29.933Z,14.27
2022-10-28T09:21:29.830Z,14.23
2022-10-28T09:22:29.727Z,14.26
2022-10-28T09:23:29.628Z,14.26
2022-10-28T09:24:29.534Z,14.27
2022-10-28T09:25:29.445Z,14.23
2022-10-28T09:26:29.343Z,14.23
2022-10-28T09:27:29.237Z,14.26
2022-10-28T09:28:29.149Z,14.19
2022-10-28T09:29:29.047Z,14.23
2022-10-28T09:30:28.967Z,14.21
2022-10-28T09:31:28.848Z,14.19
2022-10-28T09:32:28.758Z,14.27
2022-10-28T09:33:28.740Z,14.23
2022-10-28T09:34:28.559Z,14.28
2022-10-28T09:35:28.459Z,14.30
2022-10-28T09:36:28.371Z,14.34
2022-10-28T09:37:28.263Z,14.34
2022-10-28T09:38:28.163Z,14.34
2022-10-28T09:39:28.149Z,14.40
2022-10-28T09:40:27.962Z,14.41
2022-10-28T09:41:27.873Z,14.52
2022-10-28T09:42:27.843Z,14.51
2022-10-28T09:43:27.671Z,14.56
2022-10-28T09:44:27.564Z,14.70
2022-10-28T09:45:27.463Z,14.70
2022-10-28T09:46:27.388Z,14.78
2022-10-28T09:47:27.265Z,14.77
2022-10-28T09:48:27.174Z,14.77
2022-10-28T09:49:27.067Z,14.74
2022-10-28T09:50:26.968Z,14.77
2022-10-28T09:51:26.867Z,14.70
2022-10-28T09:52:26.777Z,14.67
2022-10-28T09:53:26.670Z,14.67
2022-10-28T09:54:26.567Z,14.66
2022-10-28T09:55:26.456Z,14.64
2022-10-28T09:56:26.351Z,14.64
2022-10-28T09:57:26.251Z,14.63
2022-10-28T09:58:26.139Z,14.59
2022-10-28T09:59:26.031Z,14.64
2022-10-28T10:00:25.930Z,14.59
2022-10-28T10:01:25.910Z,14.61
2022-10-28T10:02:25.873Z,14.73
2022-10-28T10:03:25.610Z,14.77
2022-10-28T10:04:25.503Z,14.73
2022-10-28T10:05:25.391Z,14.82
2022-10-28T10:06:25.293Z,14.85
2022-10-28T10:07:25.201Z,14.87
2022-10-28T10:08:25.083Z,14.90
2022-10-28T10:09:24.967Z,14.93
2022-10-28T10:10:24.870Z,14.93
2022-10-28T10:11:24.744Z,14.93
2022-10-28T10:12:24.656Z,14.92
2022-10-28T10:13:24.542Z,14.92
2022-10-28T10:14:24.424Z,14.93
2022-10-28T10:15:24.318Z,15.01
2022-10-28T10:16:24.207Z,15.08
2022-10-28T10:17:24.086Z,15.14
2022-10-28T10:18:23.988Z,15.17
2022-10-28T10:19:23.864Z,15.20
2022-10-28T10:20:23.760Z,15.19
2022-10-28T10:21:23.638Z,15.27
2022-10-28T10:22:23.579Z,15.23
2022-10-28T10:23:23.424Z,15.25
2022-10-28T10:24:23.322Z,15.26
2022-10-28T10:25:23.198Z,15.33
2022-10-28T10:26:23.099Z,15.26
2022-10-28T10:27:22.989Z,15.29
2022-10-28T10:28:22.889Z,15.35
2022-10-28T10:29:22.764Z,15.35
2022-10-28T10:30:22.651Z,15.38
2022-10-28T10:31:22.543Z,15.44
2022-10-28T10:32:22.430Z,15.48
2022-10-28T10:33:22.347Z,15.54
2022-10-28T10:34:22.206Z,15.58
2022-10-28T10:35:22.092Z,15.62
2022-10-28T10:36:21.985Z,15.65
2022-10-28T10:37:21.874Z,15.65
2022-10-28T10:38:21.762Z,15.63
2022-10-28T10:39:21.652Z,15.62
2022-10-28T10:40:21.526Z,15.69
2022-10-28T10:41:21.405Z,15.68
2022-10-28T10:42:21.305Z,15.70
2022-10-28T10:43:21.175Z,15.72
2022-10-28T10:44:21.082Z,15.73
2022-10-28T10:45:20.963Z,15.76
2022-10-28T10:46:20.850Z,15.77
2022-10-28T10:47:20.730Z,15.83
2022-10-28T10:48:20.618Z,15.90
2022-10-28T10:49:20.499Z,15.95
2022-10-28T10:50:20.428Z,15.91
2022-10-28T10:51:20.250Z,15.93
2022-10-28T10:52:20.138Z,16.03
2022-10-28T10:53:20.012Z,16.06
2022-10-28T10:54:19.910Z,16.08
2022-10-28T10:55:19.778Z,16.21
2022-10-28T10:56:19.662Z,16.21
2022-10-28T10:57:19.545Z,16.36
2022-10-28T10:58:19.442Z,16.36
2022-10-28T10:59:19.332Z,16.40
2022-10-28T11:00:19.192Z,16.46
2022-10-28T11:01:19.206Z,16.51
2022-10-28T11:02:19.092Z,16.57
2022-10-28T11:03:18.823Z,16.64
2022-10-28T11:04:18.714Z,16.67
2022-10-28T11:05:21.646Z,16.73
2022-10-28T11:06:23.547Z,16.74
2022-10-28T11:07:18.353Z,16.79
2022-10-28T11:08:18.243Z,16.80
2022-10-28T11:09:18.156Z,16.82
2022-10-28T11:10:18.016Z,16.82
2022-10-28T11:11:17.876Z,16.79
2022-10-28T11:12:17.767Z,16.79
2022-10-28T11:13:17.647Z,16.74
2022-10-28T11:14:17.537Z,16.73
2022-10-28T11:15:17.426Z,16.72
2022-10-28T11:16:17.307Z,16.76
2022-10-28T11:17:17.179Z,16.84
2022-10-28T11:18:17.073Z,16.82
2022-10-28T11:19:16.942Z,16.88
2022-10-28T11:20:16.833Z,16.92
2022-10-28T11:21:16.715Z,16.90
2022-10-28T11:22:16.562Z,16.92
2022-10-28T11:23:16.432Z,16.97
2022-10-28T11:24:16.301Z,16.97
2022-10-28T11:25:16.183Z,17.01
2022-10-28T11:26:16.052Z,17.06
2022-10-28T11:27:15.924Z,17.09
2022-10-28T11:28:15.795Z,17.22
2022-10-28T11:29:15.676Z,17.22
2022-10-28T11:30:15.554Z,17.35
2022-10-28T11:31:15.414Z,17.43
2022-10-28T11:32:15.284Z,17.50
2022-10-28T11:33:29.305Z,17.56
2022-10-28T11:34:16.027Z,17.59
2022-10-28T11:35:14.916Z,17.62
2022-10-28T11:36:14.767Z,17.63
2022-10-28T11:37:14.627Z,17.65
2022-10-28T11:38:14.511Z,17.65
2022-10-28T11:39:14.377Z,17.68
2022-10-28T11:40:14.322Z,17.63
2022-10-28T11:41:14.153Z,17.63
2022-10-28T11:42:13.989Z,17.68
2022-10-28T11:43:13.850Z,17.65
2022-10-28T11:44:13.729Z,17.68
2022-10-28T11:45:13.590Z,17.71
2022-10-28T11:46:13.470Z,17.65
2022-10-28T11:47:13.321Z,17.69
2022-10-28T11:48:13.190Z,17.68
2022-10-28T11:49:13.049Z,17.66
2022-10-28T11:50:12.969Z,17.66
2022-10-28T11:51:12.813Z,17.68
2022-10-28T11:52:12.661Z,17.69
2022-10-28T11:53:12.535Z,17.72
2022-10-28T11:54:12.404Z,17.73
2022-10-28T11:55:12.264Z,17.73
2022-10-28T11:56:12.148Z,17.73
2022-10-28T11:57:12.005Z,17.76
2022-10-28T11:59:11.805Z,17.75
2022-10-28T12:00:11.616Z,17.75
2022-10-28T12:01:11.544Z,17.71
2022-10-28T12:02:11.474Z,17.65
2022-10-28T12:03:11.270Z,17.56
2022-10-28T12:04:11.077Z,17.54
2022-10-28T12:05:10.957Z,17.54
2022-10-28T12:06:10.817Z,17.49
2022-10-28T12:07:10.700Z,17.46
2022-10-28T12:08:10.550Z,17.46
2022-10-28T12:09:10.422Z,17.47
2022-10-28T12:10:10.279Z,17.45
2022-10-28T12:11:10.150Z,17.45
2022-10-28T12:12:10.025Z,17.39
2022-10-28T12:13:09.871Z,17.38
2022-10-28T12:14:09.734Z,17.35
2022-10-28T12:15:09.603Z,17.35
2022-10-28T12:16:09.483Z,17.34
2022-10-28T12:17:09.332Z,17.34
2022-10-28T12:18:09.192Z,17.25
2022-10-28T12:19:09.068Z,17.31
2022-10-28T12:20:08.928Z,17.31
2022-10-28T12:21:08.875Z,17.28
2022-10-28T12:22:08.655Z,17.27
2022-10-28T12:23:08.534Z,17.28
2022-10-28T12:24:08.395Z,17.17
2022-10-28T12:25:08.383Z,17.14
2022-10-28T12:26:08.147Z,17.17
2022-10-28T12:27:07.995Z,17.13
2022-10-28T12:28:07.929Z,17.16
2022-10-28T12:29:07.735Z,17.13
2022-10-28T12:30:07.605Z,17.12
2022-10-28T12:31:07.482Z,17.12
2022-10-28T12:32:07.336Z,17.13
2022-10-28T12:33:07.215Z,17.13
2022-10-28T12:34:07.080Z,17.16
2022-10-28T12:35:06.939Z,17.19
2022-10-28T12:36:06.812Z,17.27
2022-10-28T12:37:06.661Z,17.31
2022-10-28T12:38:06.520Z,17.28
2022-10-28T12:39:06.400Z,17.32
2022-10-28T12:40:06.250Z,17.35
2022-10-28T12:41:06.129Z,17.39
2022-10-28T12:42:06.002Z,17.41
2022-10-28T12:43:05.853Z,17.43
2022-10-28T12:44:05.744Z,17.46
2022-10-28T12:45:05.600Z,17.49
2022-10-28T12:46:05.455Z,17.50
2022-10-28T12:47:05.429Z,17.49
2022-10-28T12:48:05.194Z,17.49
2022-10-28T12:49:05.063Z,17.49
2022-10-28T12:50:04.934Z,17.53
2022-10-28T12:51:04.795Z,17.54
2022-10-28T12:52:04.645Z,17.57
2022-10-28T12:53:04.516Z,17.65
2022-10-28T12:54:04.397Z,17.66
2022-10-28T12:55:04.339Z,17.62
2022-10-28T12:56:04.143Z,17.72
2022-10-28T12:57:03.971Z,17.73
2022-10-28T12:58:03.831Z,17.75
2022-10-28T13:00:03.559Z,17.81
2022-10-28T13:01:03.465Z,17.84
2022-10-28T13:02:03.348Z,17.84
2022-10-28T13:03:03.158Z,17.81
2022-10-28T13:04:03.000Z,17.86
2022-10-28T13:05:02.900Z,17.87
2022-10-28T13:06:02.741Z,17.87
2022-10-28T13:07:02.601Z,17.84
2022-10-28T13:08:02.770Z,17.86
2022-10-28T13:09:02.335Z,17.87
2022-10-28T13:10:09.241Z,17.90
2022-10-28T13:11:02.074Z,17.88